sensor_id;sensor_type;location;lat;lon;timestamp;temperature;humidity
83553;DHT22;73510;50.866;5.420;2024-02-04T00:01:41;11.20;75.90
83553;DHT22;73510;50.866;5.420;2024-02-04T00:04:07;11.30;75.80
83553;DHT22;73510;50.866;5.420;2024-02-04T00:06:33;11.30;75.70
83553;DHT22;73510;50.866;5.420;2024-02-04T00:08:59;11.20;75.80
83553;DHT22;73510;50.866;5.420;2024-02-04T00:11:25;11.20;75.70
83553;DHT22;73510;50.866;5.420;2024-02-04T00:13:51;11.20;75.80
83553;DHT22;73510;50.866;5.420;2024-02-04T00:16:17;11.10;76.00
83553;DHT22;73510;50.866;5.420;2024-02-04T00:18:43;11.20;75.80
83553;DHT22;73510;50.866;5.420;2024-02-04T00:21:09;11.20;75.90
83553;DHT22;73510;50.866;5.420;2024-02-04T00:23:34;11.20;75.80
83553;DHT22;73510;50.866;5.420;2024-02-04T00:26:00;11.30;75.90
83553;DHT22;73510;50.866;5.420;2024-02-04T00:28:26;11.20;76.00
83553;DHT22;73510;50.866;5.420;2024-02-04T00:30:53;11.20;76.00
83553;DHT22;73510;50.866;5.420;2024-02-04T00:33:21;11.20;75.90
83553;DHT22;73510;50.866;5.420;2024-02-04T00:35:47;11.20;76.00
83553;DHT22;73510;50.866;5.420;2024-02-04T00:38:13;11.20;76.10
83553;DHT22;73510;50.866;5.420;2024-02-04T00:40:39;11.20;76.10
83553;DHT22;73510;50.866;5.420;2024-02-04T00:43:05;11.20;76.10
83553;DHT22;73510;50.866;5.420;2024-02-04T00:45:31;11.20;76.00
83553;DHT22;73510;50.866;5.420;2024-02-04T00:47:57;11.20;76.10
83553;DHT22;73510;50.866;5.420;2024-02-04T00:50:22;11.10;76.20
83553;DHT22;73510;50.866;5.420;2024-02-04T00:52:48;11.20;76.10
83553;DHT22;73510;50.866;5.420;2024-02-04T00:55:13;11.20;76.20
83553;DHT22;73510;50.866;5.420;2024-02-04T00:57:39;11.20;76.20
83553;DHT22;73510;50.866;5.420;2024-02-04T01:00:05;11.20;76.20
83553;DHT22;73510;50.866;5.420;2024-02-04T01:02:31;11.20;76.20
83553;DHT22;73510;50.866;5.420;2024-02-04T01:04:57;11.30;76.20
83553;DHT22;73510;50.866;5.420;2024-02-04T01:07:22;11.20;76.20
83553;DHT22;73510;50.866;5.420;2024-02-04T01:09:48;11.30;76.20
83553;DHT22;73510;50.866;5.420;2024-02-04T01:12:14;11.30;76.30
83553;DHT22;73510;50.866;5.420;2024-02-04T01:14:39;11.30;76.20
83553;DHT22;73510;50.866;5.420;2024-02-04T01:17:06;11.30;76.20
83553;DHT22;73510;50.866;5.420;2024-02-04T01:19:32;11.30;76.20
83553;DHT22;73510;50.866;5.420;2024-02-04T01:21:58;11.30;76.30
83553;DHT22;73510;50.866;5.420;2024-02-04T01:24:24;11.30;76.40
83553;DHT22;73510;50.866;5.420;2024-02-04T01:26:50;11.30;76.40
83553;DHT22;73510;50.866;5.420;2024-02-04T01:29:16;11.30;76.40
83553;DHT22;73510;50.866;5.420;2024-02-04T01:31:42;11.30;76.30
83553;DHT22;73510;50.866;5.420;2024-02-04T01:34:07;11.30;76.40
83553;DHT22;73510;50.866;5.420;2024-02-04T01:36:33;11.30;76.30
83553;DHT22;73510;50.866;5.420;2024-02-04T01:38:59;11.30;76.20
83553;DHT22;73510;50.866;5.420;2024-02-04T01:41:24;11.30;76.30
83553;DHT22;73510;50.866;5.420;2024-02-04T01:43:53;11.30;76.20
83553;DHT22;73510;50.866;5.420;2024-02-04T01:46:19;11.30;76.30
83553;DHT22;73510;50.866;5.420;2024-02-04T01:48:45;11.30;76.40
83553;DHT22;73510;50.866;5.420;2024-02-04T01:51:11;11.30;76.50
83553;DHT22;73510;50.866;5.420;2024-02-04T01:53:39;11.30;76.60
83553;DHT22;73510;50.866;5.420;2024-02-04T01:56:07;11.30;76.60
83553;DHT22;73510;50.866;5.420;2024-02-04T01:58:34;11.30;76.50
83553;DHT22;73510;50.866;5.420;2024-02-04T02:00:59;11.30;76.50
83553;DHT22;73510;50.866;5.420;2024-02-04T02:03:26;11.30;76.40
83553;DHT22;73510;50.866;5.420;2024-02-04T02:05:52;11.30;76.60
83553;DHT22;73510;50.866;5.420;2024-02-04T02:08:18;11.30;76.50
83553;DHT22;73510;50.866;5.420;2024-02-04T02:10:46;11.30;76.60
83553;DHT22;73510;50.866;5.420;2024-02-04T02:13:22;11.30;76.50
83553;DHT22;73510;50.866;5.420;2024-02-04T02:15:56;11.30;76.50
83553;DHT22;73510;50.866;5.420;2024-02-04T02:23:54;11.30;76.50
83553;DHT22;73510;50.866;5.420;2024-02-04T02:26:23;11.40;76.50
83553;DHT22;73510;50.866;5.420;2024-02-04T02:28:49;11.40;76.50
83553;DHT22;73510;50.866;5.420;2024-02-04T02:31:14;11.40;76.60
83553;DHT22;73510;50.866;5.420;2024-02-04T02:33:40;11.30;76.60
83553;DHT22;73510;50.866;5.420;2024-02-04T02:36:12;11.40;76.50
83553;DHT22;73510;50.866;5.420;2024-02-04T02:39:15;11.40;76.50
83553;DHT22;73510;50.866;5.420;2024-02-04T02:41:44;11.40;76.50
83553;DHT22;73510;50.866;5.420;2024-02-04T02:44:13;11.40;76.60
83553;DHT22;73510;50.866;5.420;2024-02-04T02:46:40;11.40;76.50
83553;DHT22;73510;50.866;5.420;2024-02-04T02:49:06;11.40;76.50
83553;DHT22;73510;50.866;5.420;2024-02-04T02:51:32;11.40;76.50
83553;DHT22;73510;50.866;5.420;2024-02-04T02:53:58;11.40;76.40
83553;DHT22;73510;50.866;5.420;2024-02-04T02:56:23;11.40;76.50
83553;DHT22;73510;50.866;5.420;2024-02-04T02:58:49;11.40;76.50
83553;DHT22;73510;50.866;5.420;2024-02-04T03:01:15;11.40;76.60
83553;DHT22;73510;50.866;5.420;2024-02-04T03:03:40;11.40;76.60
83553;DHT22;73510;50.866;5.420;2024-02-04T03:06:06;11.40;76.50
83553;DHT22;73510;50.866;5.420;2024-02-04T03:08:33;11.40;76.50
83553;DHT22;73510;50.866;5.420;2024-02-04T03:10:59;11.40;76.50
83553;DHT22;73510;50.866;5.420;2024-02-04T03:13:24;11.40;76.50
83553;DHT22;73510;50.866;5.420;2024-02-04T03:15:50;11.40;76.50
83553;DHT22;73510;50.866;5.420;2024-02-04T03:18:16;11.40;76.30
83553;DHT22;73510;50.866;5.420;2024-02-04T03:20:42;11.40;76.40
83553;DHT22;73510;50.866;5.420;2024-02-04T03:23:07;11.50;76.30
83553;DHT22;73510;50.866;5.420;2024-02-04T03:25:33;11.40;76.20
83553;DHT22;73510;50.866;5.420;2024-02-04T03:27:59;11.40;76.30
83553;DHT22;73510;50.866;5.420;2024-02-04T03:30:25;11.50;76.50
83553;DHT22;73510;50.866;5.420;2024-02-04T03:32:50;11.40;76.40
83553;DHT22;73510;50.866;5.420;2024-02-04T03:35:16;11.40;76.40
83553;DHT22;73510;50.866;5.420;2024-02-04T03:37:42;11.40;76.50
83553;DHT22;73510;50.866;5.420;2024-02-04T03:40:08;11.40;76.40
83553;DHT22;73510;50.866;5.420;2024-02-04T03:42:33;11.40;76.30
83553;DHT22;73510;50.866;5.420;2024-02-04T03:44:59;11.40;76.30
83553;DHT22;73510;50.866;5.420;2024-02-04T03:47:26;11.50;76.20
83553;DHT22;73510;50.866;5.420;2024-02-04T03:49:52;11.40;76.30
83553;DHT22;73510;50.866;5.420;2024-02-04T03:52:18;11.50;76.20
83553;DHT22;73510;50.866;5.420;2024-02-04T03:54:43;11.50;76.10
83553;DHT22;73510;50.866;5.420;2024-02-04T03:57:10;11.50;76.20
83553;DHT22;73510;50.866;5.420;2024-02-04T03:59:35;11.40;76.20
83553;DHT22;73510;50.866;5.420;2024-02-04T04:02:01;11.50;76.10
83553;DHT22;73510;50.866;5.420;2024-02-04T04:04:27;11.40;76.10
83553;DHT22;73510;50.866;5.420;2024-02-04T04:06:53;11.40;76.20
83553;DHT22;73510;50.866;5.420;2024-02-04T04:09:19;11.40;76.20
83553;DHT22;73510;50.866;5.420;2024-02-04T04:11:45;11.40;76.20
83553;DHT22;73510;50.866;5.420;2024-02-04T04:14:10;11.40;76.10
83553;DHT22;73510;50.866;5.420;2024-02-04T04:16:36;11.50;76.00
83553;DHT22;73510;50.866;5.420;2024-02-04T04:19:02;11.50;76.00
83553;DHT22;73510;50.866;5.420;2024-02-04T04:21:27;11.40;76.10
83553;DHT22;73510;50.866;5.420;2024-02-04T04:23:53;11.40;76.20
83553;DHT22;73510;50.866;5.420;2024-02-04T04:26:19;11.40;76.20
83553;DHT22;73510;50.866;5.420;2024-02-04T04:28:44;11.40;76.20
83553;DHT22;73510;50.866;5.420;2024-02-04T04:31:10;11.40;76.10
83553;DHT22;73510;50.866;5.420;2024-02-04T04:33:36;11.50;76.10
83553;DHT22;73510;50.866;5.420;2024-02-04T04:36:02;11.40;76.20
83553;DHT22;73510;50.866;5.420;2024-02-04T04:38:27;11.40;76.20
83553;DHT22;73510;50.866;5.420;2024-02-04T04:40:53;11.40;76.30
83553;DHT22;73510;50.866;5.420;2024-02-04T04:43:19;11.40;76.30
83553;DHT22;73510;50.866;5.420;2024-02-04T04:45:45;11.50;76.20
83553;DHT22;73510;50.866;5.420;2024-02-04T04:48:11;11.50;76.30
83553;DHT22;73510;50.866;5.420;2024-02-04T04:50:37;11.40;76.30
83553;DHT22;73510;50.866;5.420;2024-02-04T04:53:03;11.50;76.30
83553;DHT22;73510;50.866;5.420;2024-02-04T04:55:29;11.40;76.40
83553;DHT22;73510;50.866;5.420;2024-02-04T04:57:54;11.40;76.40
83553;DHT22;73510;50.866;5.420;2024-02-04T05:00:20;11.40;76.40
83553;DHT22;73510;50.866;5.420;2024-02-04T05:02:46;11.40;76.40
83553;DHT22;73510;50.866;5.420;2024-02-04T05:05:13;11.40;76.40
83553;DHT22;73510;50.866;5.420;2024-02-04T05:07:39;11.50;76.40
83553;DHT22;73510;50.866;5.420;2024-02-04T05:10:05;11.50;76.20
83553;DHT22;73510;50.866;5.420;2024-02-04T05:12:33;11.50;76.30
83553;DHT22;73510;50.866;5.420;2024-02-04T05:14:59;11.40;76.20
83553;DHT22;73510;50.866;5.420;2024-02-04T05:17:26;11.40;76.30
83553;DHT22;73510;50.866;5.420;2024-02-04T05:19:52;11.50;76.20
83553;DHT22;73510;50.866;5.420;2024-02-04T05:22:18;11.40;76.20
83553;DHT22;73510;50.866;5.420;2024-02-04T05:24:44;11.40;76.20
83553;DHT22;73510;50.866;5.420;2024-02-04T05:27:09;11.40;76.30
83553;DHT22;73510;50.866;5.420;2024-02-04T05:29:35;11.50;76.20
83553;DHT22;73510;50.866;5.420;2024-02-04T05:32:01;11.40;76.30
83553;DHT22;73510;50.866;5.420;2024-02-04T05:34:26;11.40;76.30
83553;DHT22;73510;50.866;5.420;2024-02-04T05:36:52;11.40;76.50
83553;DHT22;73510;50.866;5.420;2024-02-04T05:39:18;11.40;76.40
83553;DHT22;73510;50.866;5.420;2024-02-04T05:41:44;11.40;76.40
83553;DHT22;73510;50.866;5.420;2024-02-04T05:44:09;11.40;76.40
83553;DHT22;73510;50.866;5.420;2024-02-04T05:46:36;11.40;76.30
83553;DHT22;73510;50.866;5.420;2024-02-04T05:49:02;11.40;76.40
83553;DHT22;73510;50.866;5.420;2024-02-04T05:51:28;11.40;76.20
83553;DHT22;73510;50.866;5.420;2024-02-04T05:53:54;11.40;76.30
83553;DHT22;73510;50.866;5.420;2024-02-04T05:56:21;11.40;76.40
83553;DHT22;73510;50.866;5.420;2024-02-04T05:58:47;11.40;76.30
83553;DHT22;73510;50.866;5.420;2024-02-04T06:01:12;11.40;76.20
83553;DHT22;73510;50.866;5.420;2024-02-04T06:03:39;11.40;76.20
83553;DHT22;73510;50.866;5.420;2024-02-04T06:06:06;11.40;76.20
83553;DHT22;73510;50.866;5.420;2024-02-04T06:08:32;11.40;76.30
83553;DHT22;73510;50.866;5.420;2024-02-04T06:10:58;11.40;76.50
83553;DHT22;73510;50.866;5.420;2024-02-04T06:13:23;11.40;76.30
83553;DHT22;73510;50.866;5.420;2024-02-04T06:15:49;11.40;76.30
83553;DHT22;73510;50.866;5.420;2024-02-04T06:18:15;11.40;76.40
83553;DHT22;73510;50.866;5.420;2024-02-04T06:20:40;11.40;76.30
83553;DHT22;73510;50.866;5.420;2024-02-04T06:23:06;11.40;76.40
83553;DHT22;73510;50.866;5.420;2024-02-04T06:25:32;11.40;76.30
83553;DHT22;73510;50.866;5.420;2024-02-04T06:27:57;11.40;76.40
83553;DHT22;73510;50.866;5.420;2024-02-04T06:30:23;11.30;76.40
83553;DHT22;73510;50.866;5.420;2024-02-04T06:32:49;11.30;76.40
83553;DHT22;73510;50.866;5.420;2024-02-04T06:35:17;11.30;76.40
83553;DHT22;73510;50.866;5.420;2024-02-04T06:37:44;11.30;76.40
83553;DHT22;73510;50.866;5.420;2024-02-04T06:40:10;11.30;76.40
83553;DHT22;73510;50.866;5.420;2024-02-04T06:42:36;11.30;76.30
83553;DHT22;73510;50.866;5.420;2024-02-04T06:45:03;11.30;76.20
83553;DHT22;73510;50.866;5.420;2024-02-04T06:47:29;11.30;76.30
83553;DHT22;73510;50.866;5.420;2024-02-04T06:49:55;11.40;76.20
83553;DHT22;73510;50.866;5.420;2024-02-04T06:52:21;11.40;76.20
83553;DHT22;73510;50.866;5.420;2024-02-04T06:54:46;11.30;76.40
83553;DHT22;73510;50.866;5.420;2024-02-04T06:57:12;11.30;76.30
83553;DHT22;73510;50.866;5.420;2024-02-04T06:59:37;11.40;76.30
83553;DHT22;73510;50.866;5.420;2024-02-04T07:02:03;11.40;76.10
83553;DHT22;73510;50.866;5.420;2024-02-04T07:04:29;11.30;76.20
83553;DHT22;73510;50.866;5.420;2024-02-04T07:06:55;11.30;76.30
83553;DHT22;73510;50.866;5.420;2024-02-04T07:09:20;11.30;76.40
83553;DHT22;73510;50.866;5.420;2024-02-04T07:11:46;11.30;76.40
83553;DHT22;73510;50.866;5.420;2024-02-04T07:14:12;11.30;76.30
83553;DHT22;73510;50.866;5.420;2024-02-04T07:16:38;11.40;76.30
83553;DHT22;73510;50.866;5.420;2024-02-04T07:19:03;11.40;76.20
83553;DHT22;73510;50.866;5.420;2024-02-04T07:21:29;11.40;76.20
83553;DHT22;73510;50.866;5.420;2024-02-04T07:23:56;11.40;76.20
83553;DHT22;73510;50.866;5.420;2024-02-04T07:26:21;11.40;76.20
83553;DHT22;73510;50.866;5.420;2024-02-04T07:28:47;11.40;76.50
83553;DHT22;73510;50.866;5.420;2024-02-04T07:31:13;11.40;76.40
83553;DHT22;73510;50.866;5.420;2024-02-04T07:33:38;11.40;76.40
83553;DHT22;73510;50.866;5.420;2024-02-04T07:36:04;11.40;76.50
83553;DHT22;73510;50.866;5.420;2024-02-04T07:38:30;11.40;76.40
83553;DHT22;73510;50.866;5.420;2024-02-04T07:40:56;11.40;76.40
83553;DHT22;73510;50.866;5.420;2024-02-04T07:43:24;11.40;76.30
83553;DHT22;73510;50.866;5.420;2024-02-04T07:45:50;11.40;76.40
83553;DHT22;73510;50.866;5.420;2024-02-04T07:48:16;11.40;76.30
83553;DHT22;73510;50.866;5.420;2024-02-04T07:50:42;11.50;76.30
83553;DHT22;73510;50.866;5.420;2024-02-04T07:53:08;11.50;76.10
83553;DHT22;73510;50.866;5.420;2024-02-04T07:55:34;11.50;76.10
83553;DHT22;73510;50.866;5.420;2024-02-04T07:58:00;11.50;76.20
83553;DHT22;73510;50.866;5.420;2024-02-04T08:00:26;11.50;76.30
83553;DHT22;73510;50.866;5.420;2024-02-04T08:02:51;11.50;76.10
83553;DHT22;73510;50.866;5.420;2024-02-04T08:05:18;11.50;76.20
83553;DHT22;73510;50.866;5.420;2024-02-04T08:07:43;11.50;76.20
83553;DHT22;73510;50.866;5.420;2024-02-04T08:10:09;11.50;76.20
83553;DHT22;73510;50.866;5.420;2024-02-04T08:12:35;11.50;76.10
83553;DHT22;73510;50.866;5.420;2024-02-04T08:15:01;11.50;76.20
83553;DHT22;73510;50.866;5.420;2024-02-04T08:17:26;11.50;76.10
83553;DHT22;73510;50.866;5.420;2024-02-04T08:19:56;11.50;76.20
83553;DHT22;73510;50.866;5.420;2024-02-04T08:22:22;11.50;76.00
83553;DHT22;73510;50.866;5.420;2024-02-04T08:24:47;11.50;76.00
83553;DHT22;73510;50.866;5.420;2024-02-04T08:27:13;11.50;76.00
83553;DHT22;73510;50.866;5.420;2024-02-04T08:29:42;11.50;76.00
83553;DHT22;73510;50.866;5.420;2024-02-04T08:32:08;11.50;76.20
83553;DHT22;73510;50.866;5.420;2024-02-04T08:34:34;11.50;76.10
83553;DHT22;73510;50.866;5.420;2024-02-04T08:37:00;11.50;76.00
83553;DHT22;73510;50.866;5.420;2024-02-04T08:39:25;11.50;76.10
83553;DHT22;73510;50.866;5.420;2024-02-04T08:41:52;11.60;75.90
83553;DHT22;73510;50.866;5.420;2024-02-04T08:44:18;11.60;76.00
83553;DHT22;73510;50.866;5.420;2024-02-04T08:46:44;11.70;75.90
83553;DHT22;73510;50.866;5.420;2024-02-04T08:49:09;11.70;75.90
83553;DHT22;73510;50.866;5.420;2024-02-04T08:51:35;11.70;75.90
83553;DHT22;73510;50.866;5.420;2024-02-04T08:54:01;11.60;75.80
83553;DHT22;73510;50.866;5.420;2024-02-04T08:56:26;11.70;75.90
83553;DHT22;73510;50.866;5.420;2024-02-04T08:58:52;11.70;75.70
83553;DHT22;73510;50.866;5.420;2024-02-04T09:01:19;11.70;75.80
83553;DHT22;73510;50.866;5.420;2024-02-04T09:03:44;11.70;75.80
83553;DHT22;73510;50.866;5.420;2024-02-04T09:06:10;11.80;75.80
83553;DHT22;73510;50.866;5.420;2024-02-04T09:08:36;11.80;75.70
83553;DHT22;73510;50.866;5.420;2024-02-04T09:11:01;11.90;75.50
83553;DHT22;73510;50.866;5.420;2024-02-04T09:13:27;11.90;75.40
83553;DHT22;73510;50.866;5.420;2024-02-04T09:15:53;11.90;75.50
83553;DHT22;73510;50.866;5.420;2024-02-04T09:18:20;11.90;75.40
83553;DHT22;73510;50.866;5.420;2024-02-04T09:20:46;11.90;75.50
83553;DHT22;73510;50.866;5.420;2024-02-04T09:23:12;11.90;75.40
83553;DHT22;73510;50.866;5.420;2024-02-04T09:25:38;11.90;75.20
83553;DHT22;73510;50.866;5.420;2024-02-04T09:28:04;12.00;75.40
83553;DHT22;73510;50.866;5.420;2024-02-04T09:30:30;11.90;75.30
83553;DHT22;73510;50.866;5.420;2024-02-04T09:32:56;11.90;75.30
83553;DHT22;73510;50.866;5.420;2024-02-04T09:35:22;12.00;75.40
83553;DHT22;73510;50.866;5.420;2024-02-04T09:37:48;11.90;75.40
83553;DHT22;73510;50.866;5.420;2024-02-04T09:40:14;12.00;75.20
83553;DHT22;73510;50.866;5.420;2024-02-04T09:42:40;12.00;74.90
83553;DHT22;73510;50.866;5.420;2024-02-04T09:45:06;12.00;75.20
83553;DHT22;73510;50.866;5.420;2024-02-04T09:47:32;12.00;75.00
83553;DHT22;73510;50.866;5.420;2024-02-04T09:49:59;12.00;75.00
83553;DHT22;73510;50.866;5.420;2024-02-04T09:52:30;12.00;74.90
83553;DHT22;73510;50.866;5.420;2024-02-04T09:55:02;12.10;75.00
83553;DHT22;73510;50.866;5.420;2024-02-04T09:57:32;12.00;74.80
83553;DHT22;73510;50.866;5.420;2024-02-04T10:00:01;12.00;74.90
83553;DHT22;73510;50.866;5.420;2024-02-04T10:02:27;12.00;74.80
83553;DHT22;73510;50.866;5.420;2024-02-04T10:04:54;12.00;74.70
83553;DHT22;73510;50.866;5.420;2024-02-04T10:07:19;12.00;74.80
83553;DHT22;73510;50.866;5.420;2024-02-04T10:09:45;12.00;74.60
83553;DHT22;73510;50.866;5.420;2024-02-04T10:12:12;12.00;74.70
83553;DHT22;73510;50.866;5.420;2024-02-04T10:14:38;12.10;74.70
83553;DHT22;73510;50.866;5.420;2024-02-04T10:17:04;12.10;74.60
83553;DHT22;73510;50.866;5.420;2024-02-04T10:19:30;12.20;74.60
83553;DHT22;73510;50.866;5.420;2024-02-04T10:22:03;12.30;74.50
83553;DHT22;73510;50.866;5.420;2024-02-04T10:24:29;12.30;73.90
83553;DHT22;73510;50.866;5.420;2024-02-04T10:26:55;12.30;73.70
83553;DHT22;73510;50.866;5.420;2024-02-04T10:29:25;12.30;73.70
83553;DHT22;73510;50.866;5.420;2024-02-04T10:31:54;12.40;73.80
83553;DHT22;73510;50.866;5.420;2024-02-04T10:34:20;12.40;73.70
83553;DHT22;73510;50.866;5.420;2024-02-04T10:36:47;12.40;73.50
83553;DHT22;73510;50.866;5.420;2024-02-04T10:39:13;12.50;73.60
83553;DHT22;73510;50.866;5.420;2024-02-04T10:41:52;12.40;73.40
83553;DHT22;73510;50.866;5.420;2024-02-04T10:44:21;12.40;73.40
83553;DHT22;73510;50.866;5.420;2024-02-04T10:46:47;12.40;73.80
83553;DHT22;73510;50.866;5.420;2024-02-04T10:49:15;12.40;73.70
83553;DHT22;73510;50.866;5.420;2024-02-04T10:51:42;12.40;73.60
83553;DHT22;73510;50.866;5.420;2024-02-04T10:54:08;12.50;73.70
83553;DHT22;73510;50.866;5.420;2024-02-04T10:56:45;12.50;73.60
83553;DHT22;73510;50.866;5.420;2024-02-04T10:59:14;12.50;73.60
83553;DHT22;73510;50.866;5.420;2024-02-04T11:01:43;12.50;73.50
83553;DHT22;73510;50.866;5.420;2024-02-04T11:04:10;12.40;73.60
83553;DHT22;73510;50.866;5.420;2024-02-04T11:06:38;12.40;73.90
83553;DHT22;73510;50.866;5.420;2024-02-04T11:09:04;12.30;74.20
83553;DHT22;73510;50.866;5.420;2024-02-04T11:11:31;12.30;73.90
83553;DHT22;73510;50.866;5.420;2024-02-04T11:14:00;12.30;74.00
83553;DHT22;73510;50.866;5.420;2024-02-04T11:16:37;12.30;74.20
83553;DHT22;73510;50.866;5.420;2024-02-04T11:19:36;12.30;74.40
83553;DHT22;73510;50.866;5.420;2024-02-04T11:27:54;12.30;74.00
83553;DHT22;73510;50.866;5.420;2024-02-04T11:30:19;12.30;73.80
83553;DHT22;73510;50.866;5.420;2024-02-04T11:32:45;12.30;73.90
83553;DHT22;73510;50.866;5.420;2024-02-04T11:35:12;12.30;73.90
83553;DHT22;73510;50.866;5.420;2024-02-04T11:37:38;12.30;73.80
83553;DHT22;73510;50.866;5.420;2024-02-04T11:40:13;12.30;73.90
83553;DHT22;73510;50.866;5.420;2024-02-04T11:42:40;12.30;73.60
83553;DHT22;73510;50.866;5.420;2024-02-04T11:45:13;12.30;73.60
83553;DHT22;73510;50.866;5.420;2024-02-04T11:47:39;12.30;73.50
83553;DHT22;73510;50.866;5.420;2024-02-04T11:50:06;12.30;73.30
83553;DHT22;73510;50.866;5.420;2024-02-04T11:52:32;12.30;73.20
83553;DHT22;73510;50.866;5.420;2024-02-04T11:54:58;12.40;73.30
83553;DHT22;73510;50.866;5.420;2024-02-04T11:57:25;12.30;73.20
83553;DHT22;73510;50.866;5.420;2024-02-04T11:59:53;12.40;73.10
83553;DHT22;73510;50.866;5.420;2024-02-04T12:02:22;12.40;73.10
83553;DHT22;73510;50.866;5.420;2024-02-04T12:04:48;12.40;73.30
83553;DHT22;73510;50.866;5.420;2024-02-04T12:07:14;12.40;73.10
83553;DHT22;73510;50.866;5.420;2024-02-04T12:09:41;12.50;73.00
83553;DHT22;73510;50.866;5.420;2024-02-04T12:12:07;12.50;73.00
83553;DHT22;73510;50.866;5.420;2024-02-04T12:14:35;12.50;73.20
83553;DHT22;73510;50.866;5.420;2024-02-04T12:17:10;12.50;73.20
83553;DHT22;73510;50.866;5.420;2024-02-04T12:19:36;12.50;73.10
83553;DHT22;73510;50.866;5.420;2024-02-04T12:22:02;12.50;73.30
83553;DHT22;73510;50.866;5.420;2024-02-04T12:24:33;12.40;73.40
83553;DHT22;73510;50.866;5.420;2024-02-04T12:26:59;12.40;73.50
83553;DHT22;73510;50.866;5.420;2024-02-04T12:29:25;12.40;73.60
83553;DHT22;73510;50.866;5.420;2024-02-04T12:31:58;12.30;73.80
83553;DHT22;73510;50.866;5.420;2024-02-04T12:34:24;12.30;74.00
83553;DHT22;73510;50.866;5.420;2024-02-04T12:36:58;12.30;74.20
83553;DHT22;73510;50.866;5.420;2024-02-04T12:39:24;12.30;74.30
83553;DHT22;73510;50.866;5.420;2024-02-04T12:41:53;12.30;74.30
83553;DHT22;73510;50.866;5.420;2024-02-04T12:44:20;12.30;74.30
83553;DHT22;73510;50.866;5.420;2024-02-04T12:46:51;12.30;74.40
83553;DHT22;73510;50.866;5.420;2024-02-04T12:49:20;12.30;74.70
83553;DHT22;73510;50.866;5.420;2024-02-04T12:51:49;12.30;74.70
83553;DHT22;73510;50.866;5.420;2024-02-04T12:54:18;12.20;74.80
83553;DHT22;73510;50.866;5.420;2024-02-04T12:56:52;12.30;74.80
83553;DHT22;73510;50.866;5.420;2024-02-04T13:02:05;12.20;75.00
83553;DHT22;73510;50.866;5.420;2024-02-04T13:04:35;12.20;75.00
83553;DHT22;73510;50.866;5.420;2024-02-04T13:07:01;12.30;75.00
83553;DHT22;73510;50.866;5.420;2024-02-04T13:09:27;12.20;75.30
83553;DHT22;73510;50.866;5.420;2024-02-04T13:12:03;12.30;75.10
83553;DHT22;73510;50.866;5.420;2024-02-04T13:14:29;12.30;75.00
83553;DHT22;73510;50.866;5.420;2024-02-04T13:16:56;12.30;75.20
83553;DHT22;73510;50.866;5.420;2024-02-04T13:19:21;12.40;75.10
83553;DHT22;73510;50.866;5.420;2024-02-04T13:21:47;12.40;74.90
83553;DHT22;73510;50.866;5.420;2024-02-04T13:24:13;12.50;74.90
83553;DHT22;73510;50.866;5.420;2024-02-04T13:26:39;12.50;74.80
83553;DHT22;73510;50.866;5.420;2024-02-04T13:29:05;12.50;74.80
83553;DHT22;73510;50.866;5.420;2024-02-04T13:31:31;12.50;74.70
83553;DHT22;73510;50.866;5.420;2024-02-04T13:33:56;12.50;74.70
83553;DHT22;73510;50.866;5.420;2024-02-04T13:36:23;12.40;74.50
83553;DHT22;73510;50.866;5.420;2024-02-04T13:38:49;12.40;74.60
83553;DHT22;73510;50.866;5.420;2024-02-04T13:41:14;12.30;74.60
83553;DHT22;73510;50.866;5.420;2024-02-04T13:43:40;12.30;74.70
83553;DHT22;73510;50.866;5.420;2024-02-04T13:46:05;12.40;74.70
83553;DHT22;73510;50.866;5.420;2024-02-04T13:48:31;12.30;74.70
83553;DHT22;73510;50.866;5.420;2024-02-04T13:50:57;12.40;74.60
83553;DHT22;73510;50.866;5.420;2024-02-04T13:53:22;12.50;74.40
83553;DHT22;73510;50.866;5.420;2024-02-04T13:55:49;12.50;74.30
83553;DHT22;73510;50.866;5.420;2024-02-04T13:58:15;12.50;74.40
83553;DHT22;73510;50.866;5.420;2024-02-04T14:00:43;12.50;74.30
83553;DHT22;73510;50.866;5.420;2024-02-04T14:03:09;12.50;74.20
83553;DHT22;73510;50.866;5.420;2024-02-04T14:05:35;12.50;74.00
83553;DHT22;73510;50.866;5.420;2024-02-04T14:08:01;12.50;73.80
83553;DHT22;73510;50.866;5.420;2024-02-04T14:10:29;12.50;73.80
83553;DHT22;73510;50.866;5.420;2024-02-04T14:12:54;12.50;74.00
83553;DHT22;73510;50.866;5.420;2024-02-04T14:15:20;12.50;74.10
83553;DHT22;73510;50.866;5.420;2024-02-04T14:17:45;12.50;74.00
83553;DHT22;73510;50.866;5.420;2024-02-04T14:20:11;12.50;73.80
83553;DHT22;73510;50.866;5.420;2024-02-04T14:22:39;12.50;74.00
83553;DHT22;73510;50.866;5.420;2024-02-04T14:25:05;12.50;74.20
83553;DHT22;73510;50.866;5.420;2024-02-04T14:27:31;12.50;74.00
83553;DHT22;73510;50.866;5.420;2024-02-04T14:29:57;12.50;74.20
83553;DHT22;73510;50.866;5.420;2024-02-04T14:32:23;12.50;74.30
83553;DHT22;73510;50.866;5.420;2024-02-04T14:34:50;12.50;74.20
83553;DHT22;73510;50.866;5.420;2024-02-04T14:37:19;12.50;74.10
83553;DHT22;73510;50.866;5.420;2024-02-04T14:39:44;12.50;73.80
83553;DHT22;73510;50.866;5.420;2024-02-04T14:42:10;12.50;74.20
83553;DHT22;73510;50.866;5.420;2024-02-04T14:44:36;12.50;74.10
83553;DHT22;73510;50.866;5.420;2024-02-04T14:47:02;12.50;73.80
83553;DHT22;73510;50.866;5.420;2024-02-04T14:49:28;12.60;73.90
83553;DHT22;73510;50.866;5.420;2024-02-04T14:51:54;12.60;73.80
83553;DHT22;73510;50.866;5.420;2024-02-04T14:54:19;12.60;73.90
83553;DHT22;73510;50.866;5.420;2024-02-04T14:56:45;12.60;73.90
83553;DHT22;73510;50.866;5.420;2024-02-04T14:59:12;12.60;74.00
83553;DHT22;73510;50.866;5.420;2024-02-04T15:01:38;12.60;74.00
83553;DHT22;73510;50.866;5.420;2024-02-04T15:04:04;12.50;74.00
83553;DHT22;73510;50.866;5.420;2024-02-04T15:06:31;12.50;74.00
83553;DHT22;73510;50.866;5.420;2024-02-04T15:08:58;12.50;74.10
83553;DHT22;73510;50.866;5.420;2024-02-04T15:11:25;12.50;74.10
83553;DHT22;73510;50.866;5.420;2024-02-04T15:13:52;12.50;74.00
83553;DHT22;73510;50.866;5.420;2024-02-04T15:16:19;12.50;74.10
83553;DHT22;73510;50.866;5.420;2024-02-04T15:18:45;12.50;74.30
83553;DHT22;73510;50.866;5.420;2024-02-04T15:21:10;12.50;74.30
83553;DHT22;73510;50.866;5.420;2024-02-04T15:23:37;12.50;74.20
83553;DHT22;73510;50.866;5.420;2024-02-04T15:26:10;12.40;74.30
83553;DHT22;73510;50.866;5.420;2024-02-04T15:28:37;12.40;74.40
83553;DHT22;73510;50.866;5.420;2024-02-04T15:31:04;12.30;74.40
83553;DHT22;73510;50.866;5.420;2024-02-04T15:33:30;12.30;74.50
83553;DHT22;73510;50.866;5.420;2024-02-04T15:35:56;12.30;74.60
83553;DHT22;73510;50.866;5.420;2024-02-04T15:38:22;12.30;74.60
83553;DHT22;73510;50.866;5.420;2024-02-04T15:40:48;12.30;74.50